Time;durP1;ratioP1;P1;durP2;ratioP2;P2;SDS_P1;SDS_P2;PMS_P1;PMS_P2;Temp;Humidity;BMP_temperature;BMP_pressure;BME280_temperature;BME280_humidity;BME280_pressure;Samples;Min_cycle;Max_cycle;Signal;HPM_P1;HPM_P2
2021/11/08 00:00:49;;;;;;;4.55;1.02;;;12.00;89.60;;;;;;5085036;28;20055;-76
2021/11/08 00:03:19;;;;;;;3.85;1.85;;;12.00;89.70;;;;;;5074466;28;20429;-76
2021/11/08 00:05:45;;;;;;;5.07;2.20;;;11.90;89.80;;;;;;5081753;28;20023;-75
2021/11/08 00:08:14;;;;;;;8.43;2.35;;;11.90;89.90;;;;;;5085114;28;20047;-75
2021/11/08 00:10:41;;;;;;;7.05;1.35;;;11.90;90.00;;;;;;5078315;28;20391;-75
2021/11/08 00:13:09;;;;;;;5.28;1.02;;;11.90;90.00;;;;;;5075613;28;20024;-75
2021/11/08 00:15:52;;;;;;;3.22;1.25;;;11.90;90.10;;;;;;5075058;28;20484;-75
2021/11/08 00:20:48;;;;;;;2.05;0.98;;;11.80;90.20;;;;;;5073368;28;20485;-75
2021/11/08 00:23:15;;;;;;;7.05;0.88;;;11.80;90.30;;;;;;5086853;28;20032;-75
2021/11/08 00:25:42;;;;;;;6.35;1.25;;;11.70;90.50;;;;;;5077043;28;20052;-75
2021/11/08 00:28:10;;;;;;;3.63;1.67;;;11.60;90.60;;;;;;5073746;28;20103;-75
2021/11/08 00:30:38;;;;;;;6.32;1.42;;;11.60;90.70;;;;;;5089602;28;20036;-75
2021/11/08 00:33:08;;;;;;;6.32;1.73;;;11.60;90.90;;;;;;5081407;28;20510;-76
2021/11/08 00:35:35;;;;;;;4.78;1.10;;;11.50;90.90;;;;;;5075440;28;20040;-76
2021/11/08 00:38:01;;;;;;;3.15;1.02;;;11.50;91.10;;;;;;5079279;28;20028;-76
2021/11/08 00:40:27;;;;;;;2.55;1.10;;;11.40;91.20;;;;;;5090517;28;20044;-76
2021/11/08 00:42:53;;;;;;;6.70;1.90;;;11.40;91.30;;;;;;5076893;28;20070;-76
2021/11/08 00:45:20;;;;;;;4.95;1.63;;;11.40;91.40;;;;;;5091654;28;20036;-76
2021/11/08 00:47:45;;;;;;;7.07;1.30;;;11.40;91.40;;;;;;5086893;28;20053;-76
2021/11/08 00:50:12;;;;;;;5.88;1.38;;;11.40;91.40;;;;;;5081843;28;20032;-76
2021/11/08 00:52:38;;;;;;;2.60;0.75;;;11.30;91.40;;;;;;5080294;28;20074;-76
2021/11/08 00:55:04;;;;;;;5.82;0.88;;;11.40;91.50;;;;;;5093984;28;20044;-76
2021/11/08 00:57:33;;;;;;;5.50;1.23;;;11.30;91.50;;;;;;5104522;28;20036;-76
2021/11/08 01:00:00;;;;;;;6.25;2.20;;;11.30;91.60;;;;;;5099747;28;20035;-76
2021/11/08 01:02:29;;;;;;;0.50;0.40;;;11.30;91.60;;;;;;5092360;28;20047;-76
2021/11/08 01:04:56;;;;;;;1.38;0.50;;;11.30;91.60;;;;;;5110184;28;20050;-76
2021/11/08 01:07:22;;;;;;;6.07;1.63;;;11.30;91.60;;;;;;5107854;27;20040;-76
2021/11/08 01:09:48;;;;;;;6.90;1.67;;;11.30;91.60;;;;;;5103984;28;20020;-76
2021/11/08 01:12:14;;;;;;;4.15;0.93;;;11.30;91.60;;;;;;5092720;28;20024;-76
2021/11/08 01:14:41;;;;;;;2.30;0.47;;;11.20;91.60;;;;;;5105854;27;20035;-76
2021/11/08 01:17:08;;;;;;;3.20;0.95;;;11.20;91.60;;;;;;5108121;28;20110;-76
2021/11/08 01:19:35;;;;;;;4.95;0.90;;;11.20;91.60;;;;;;5099833;28;20058;-76
2021/11/08 01:22:16;;;;;;;4.38;1.08;;;11.30;91.60;;;;;;5112846;28;20074;-76
2021/11/08 01:24:52;;;;;;;1.10;0.73;;;11.20;91.50;;;;;;5099582;28;20036;-76
2021/11/08 01:27:20;;;;;;;2.60;0.95;;;11.30;91.50;;;;;;5098830;28;20387;-76
2021/11/08 01:29:46;;;;;;;0.52;0.52;;;11.30;91.50;;;;;;5104550;28;20036;-75
2021/11/08 01:32:11;;;;;;;5.10;1.33;;;11.30;91.40;;;;;;5103354;28;20114;-75
2021/11/08 01:34:37;;;;;;;9.20;1.73;;;11.20;91.40;;;;;;5102325;28;20063;-76
2021/11/08 01:37:04;;;;;;;15.18;0.60;;;11.20;91.40;;;;;;5101842;27;20035;-75
2021/11/08 01:39:35;;;;;;;1.67;0.75;;;11.20;91.30;;;;;;5103271;28;20067;-75
2021/11/08 01:42:13;;;;;;;1.58;0.47;;;11.20;91.40;;;;;;5109307;28;20490;-76
2021/11/08 01:44:40;;;;;;;5.75;1.15;;;11.10;91.30;;;;;;5101746;27;20148;-75
2021/11/08 01:47:06;;;;;;;8.85;1.33;;;11.20;91.40;;;;;;5097004;28;20028;-76
2021/11/08 01:49:33;;;;;;;12.73;1.58;;;11.10;91.30;;;;;;5093052;28;20071;-76
2021/11/08 01:51:59;;;;;;;1.65;0.35;;;11.20;91.30;;;;;;5098762;28;20478;-76
2021/11/08 01:54:26;;;;;;;0.10;0.10;;;11.20;91.20;;;;;;5095247;27;20052;-77
2021/11/08 01:56:53;;;;;;;6.63;0.88;;;11.20;91.20;;;;;;5099893;28;20024;-76
2021/11/08 01:59:20;;;;;;;0.45;0.45;;;11.20;91.10;;;;;;5092813;28;20032;-76
2021/11/08 02:01:47;;;;;;;1.70;0.30;;;11.20;91.10;;;;;;5106718;28;20024;-75
2021/11/08 02:04:12;;;;;;;4.93;0.50;;;11.20;91.00;;;;;;5097560;28;20371;-75
2021/11/08 02:06:38;;;;;;;1.83;0.65;;;11.30;91.00;;;;;;5098384;28;20031;-75
2021/11/08 02:09:05;;;;;;;0.70;0.63;;;11.20;90.90;;;;;;5098661;28;20032;-76
2021/11/08 02:11:35;;;;;;;5.20;0.68;;;11.20;90.90;;;;;;5100465;28;20025;-76
2021/11/08 02:14:02;;;;;;;1.90;1.33;;;11.20;90.90;;;;;;5099671;28;20036;-75
2021/11/08 02:16:28;;;;;;;0.35;0.35;;;11.20;90.90;;;;;;5111864;28;20126;-76
2021/11/08 02:18:54;;;;;;;4.30;1.63;;;11.20;90.90;;;;;;5099605;28;20028;-76
2021/11/08 02:21:20;;;;;;;3.63;1.55;;;11.20;90.90;;;;;;5114653;28;20406;-76
2021/11/08 02:23:48;;;;;;;0.60;0.60;;;11.20;90.80;;;;;;5109213;28;20049;-76
2021/11/08 02:26:16;;;;;;;5.43;1.02;;;11.10;90.80;;;;;;5097025;28;20028;-76
2021/11/08 02:28:44;;;;;;;1.75;0.98;;;11.10;90.80;;;;;;5094508;28;20111;-76
2021/11/08 02:31:17;;;;;;;8.30;0.95;;;11.10;90.80;;;;;;5094136;28;20031;-76
2021/11/08 02:33:43;;;;;;;6.55;0.50;;;11.10;90.80;;;;;;5121596;27;20486;-76
2021/11/08 02:36:09;;;;;;;0.47;0.47;;;11.10;90.80;;;;;;5101498;28;20024;-76
2021/11/08 02:38:39;;;;;;;0.60;0.52;;;11.10;90.80;;;;;;5110084;28;20089;-76
2021/11/08 02:41:09;;;;;;;5.70;1.25;;;11.10;90.70;;;;;;5106054;28;20027;-76
2021/11/08 02:43:36;;;;;;;4.38;1.20;;;11.10;90.80;;;;;;5110637;28;20047;-77
2021/11/08 02:48:28;;;;;;;1.75;1.02;;;11.00;90.70;;;;;;5096809;28;20440;-76
2021/11/08 02:51:05;;;;;;;1.58;1.00;;;11.00;90.80;;;;;;5119568;27;20085;-76
2021/11/08 02:53:32;;;;;;;1.77;1.00;;;11.00;90.90;;;;;;5099668;28;20048;-76
2021/11/08 02:55:58;;;;;;;0.82;0.40;;;10.90;90.80;;;;;;5095823;28;20419;-76
2021/11/08 02:58:27;;;;;;;1.27;0.80;;;10.90;90.90;;;;;;5106437;28;20028;-77
2021/11/08 03:00:54;;;;;;;1.45;1.02;;;10.80;90.80;;;;;;5097293;28;20139;-76
2021/11/08 03:03:23;;;;;;;4.28;1.08;;;10.90;90.90;;;;;;5095254;28;20047;-76
2021/11/08 03:05:49;;;;;;;5.18;1.80;;;10.80;90.80;;;;;;5098257;28;21826;-76
2021/11/08 03:08:15;;;;;;;3.95;0.98;;;10.80;90.90;;;;;;5110855;28;20027;-76
2021/11/08 03:10:41;;;;;;;3.70;0.60;;;10.80;90.90;;;;;;5099140;28;20035;-76
2021/11/08 03:13:17;;;;;;;4.38;0.88;;;10.70;91.00;;;;;;5094946;28;20024;-76
2021/11/08 03:16:06;;;;;;;7.57;1.27;;;10.70;90.90;;;;;;5094024;28;20085;-76
2021/11/08 03:18:37;;;;;;;3.92;1.20;;;10.70;91.00;;;;;;5095050;28;20036;-73
2021/11/08 03:21:04;;;;;;;1.52;1.00;;;10.70;90.90;;;;;;5095543;28;20119;-76
2021/11/08 03:23:31;;;;;;;3.85;0.90;;;10.70;91.00;;;;;;5111204;28;20038;-77
2021/11/08 03:26:14;;;;;;;3.20;1.40;;;10.70;91.00;;;;;;5110191;28;20581;-76
2021/11/08 03:28:40;;;;;;;0.95;0.50;;;10.60;90.90;;;;;;5108833;28;20070;-76
2021/11/08 03:31:10;;;;;;;7.35;1.40;;;10.70;91.00;;;;;;5106752;28;20039;-77
2021/11/08 03:33:36;;;;;;;12.55;1.65;;;10.60;90.90;;;;;;5098605;28;20040;-77
2021/11/08 03:36:02;;;;;;;3.33;0.82;;;10.60;90.80;;;;;;5093393;28;20043;-77
2021/11/08 03:38:31;;;;;;;4.43;0.93;;;10.60;90.70;;;;;;5102331;28;20024;-67
2021/11/08 03:40:57;;;;;;;3.40;1.35;;;10.60;90.70;;;;;;5099893;28;20089;-70
2021/11/08 03:43:22;;;;;;;2.47;1.30;;;10.60;90.70;;;;;;5100323;28;20052;-77
2021/11/08 03:45:49;;;;;;;3.95;1.13;;;10.50;90.80;;;;;;5101889;28;20052;-78
2021/11/08 03:48:16;;;;;;;5.90;0.70;;;10.50;90.80;;;;;;5099577;28;20039;-78
2021/11/08 03:50:42;;;;;;;9.32;1.38;;;10.50;90.80;;;;;;5098915;28;20036;-78
2021/11/08 03:53:09;;;;;;;7.70;1.65;;;10.50;90.90;;;;;;5099744;28;20055;-78
2021/11/08 03:55:35;;;;;;;5.15;1.27;;;10.50;91.00;;;;;;5102659;28;20040;-78
2021/11/08 03:58:01;;;;;;;1.00;0.95;;;10.40;91.00;;;;;;5097267;28;20032;-78
2021/11/08 04:00:28;;;;;;;5.13;0.95;;;10.40;91.10;;;;;;5101219;28;20120;-77
2021/11/08 04:02:57;;;;;;;2.72;1.27;;;10.40;91.20;;;;;;5096318;28;20110;-78
2021/11/08 04:05:26;;;;;;;5.72;1.83;;;10.40;91.30;;;;;;5099203;28;20028;-77
2021/11/08 04:07:52;;;;;;;2.13;0.82;;;10.40;91.40;;;;;;5103620;28;20040;-78
2021/11/08 04:10:20;;;;;;;1.88;0.68;;;10.40;91.40;;;;;;5100826;28;20035;-78
2021/11/08 04:12:48;;;;;;;2.08;0.65;;;10.40;91.50;;;;;;5095000;28;20395;-78
2021/11/08 04:15:17;;;;;;;3.13;0.80;;;10.40;91.50;;;;;;5103605;28;20047;-78
2021/11/08 04:17:45;;;;;;;6.45;1.15;;;10.40;91.50;;;;;;5098336;28;20099;-78
2021/11/08 04:20:16;;;;;;;1.83;1.20;;;10.40;91.50;;;;;;5101534;28;20028;-78
2021/11/08 04:22:43;;;;;;;2.53;0.88;;;10.40;91.50;;;;;;5112967;28;20036;-78
2021/11/08 04:25:09;;;;;;;5.60;1.42;;;10.40;91.50;;;;;;5099403;28;20114;-77
2021/11/08 04:27:37;;;;;;;1.85;1.00;;;10.40;91.60;;;;;;5095634;28;20028;-78
2021/11/08 04:30:07;;;;;;;2.25;0.80;;;10.30;91.60;;;;;;5097651;28;20038;-78
2021/11/08 04:32:44;;;;;;;2.08;1.20;;;10.40;91.70;;;;;;5099470;28;20028;-78
2021/11/08 04:35:15;;;;;;;3.20;0.55;;;10.30;91.70;;;;;;5105909;28;20046;-77
2021/11/08 04:38:08;;;;;;;3.70;0.60;;;10.40;91.70;;;;;;5105964;28;20032;-78
2021/11/08 04:40:42;;;;;;;1.35;0.57;;;10.30;91.70;;;;;;5098064;28;20122;-78
2021/11/08 04:43:15;;;;;;;1.75;0.75;;;10.30;91.60;;;;;;5097209;28;20020;-78
2021/11/08 04:51:02;;;;;;;0.28;0.28;;;10.40;91.60;;;;;;5105120;28;20454;-79
2021/11/08 04:53:39;;;;;;;1.65;0.45;;;10.40;91.50;;;;;;5105707;28;20044;-77
2021/11/08 04:56:37;;;;;;;1.48;1.00;;;10.40;91.50;;;;;;5094448;28;20715;-76
2021/11/08 05:24:09;;;;;;;8.50;1.48;;;10.30;91.70;;;;;;5110123;28;20032;-78
2021/11/08 05:31:40;;;;;;;13.45;1.20;;;10.20;91.80;;;;;;5096739;28;20028;-78
2021/11/08 05:34:07;;;;;;;1.48;0.77;;;10.20;91.90;;;;;;5111828;28;20036;-78
2021/11/08 05:36:32;;;;;;;21.35;1.40;;;10.30;92.00;;;;;;5102827;28;20038;-77
2021/11/08 05:39:00;;;;;;;0.30;0.30;;;10.20;91.90;;;;;;5103536;28;20025;-77
2021/11/08 05:41:26;;;;;;;5.35;1.15;;;10.20;91.90;;;;;;5103115;28;20023;-80
2021/11/08 05:43:52;;;;;;;2.72;0.55;;;10.20;91.90;;;;;;5098984;28;20028;-85
2021/11/08 05:46:19;;;;;;;0.50;0.40;;;10.30;91.90;;;;;;5096274;28;20024;-77
2021/11/08 05:48:48;;;;;;;1.40;1.05;;;10.30;91.90;;;;;;5099107;28;20024;-77
2021/11/08 05:51:14;;;;;;;8.63;1.02;;;10.30;91.90;;;;;;5095900;28;20026;-81
2021/11/08 05:53:45;;;;;;;4.43;1.00;;;10.30;91.90;;;;;;5097894;28;20058;-77
2021/11/08 06:50:22;;;;;;;2.53;1.00;;;10.00;92.40;;;;;;5096151;28;20023;-78
2021/11/08 06:52:56;;;;;;;3.67;1.00;;;10.00;92.50;;;;;;5110483;28;20052;-79
2021/11/08 06:55:22;;;;;;;5.68;1.90;;;10.00;92.50;;;;;;5094893;28;20048;-79
2021/11/08 06:57:52;;;;;;;1.35;0.85;;;10.00;92.50;;;;;;5110440;28;20035;-78
2021/11/08 07:00:21;;;;;;;14.13;1.33;;;10.00;92.50;;;;;;5107728;28;20078;-79
2021/11/08 07:02:46;;;;;;;4.05;1.40;;;10.10;92.60;;;;;;5110353;28;20035;-79
2021/11/08 07:05:12;;;;;;;1.05;0.60;;;10.10;92.60;;;;;;5098220;28;20031;-78
2021/11/08 07:07:38;;;;;;;3.97;1.00;;;10.10;92.60;;;;;;5095824;28;20027;-79
2021/11/08 07:10:05;;;;;;;2.63;1.00;;;10.10;92.70;;;;;;5099221;28;20040;-79
2021/11/08 07:12:31;;;;;;;1.48;0.73;;;10.10;92.70;;;;;;5090976;28;20031;-79
2021/11/08 07:14:57;;;;;;;5.53;1.63;;;10.20;92.70;;;;;;5100917;28;20486;-78
2021/11/08 07:17:23;;;;;;;5.43;1.48;;;10.20;92.70;;;;;;5096175;28;20032;-78
2021/11/08 07:19:49;;;;;;;9.57;2.00;;;10.20;92.70;;;;;;5114108;28;20580;-77
2021/11/08 07:22:15;;;;;;;5.97;1.10;;;10.20;92.70;;;;;;5114574;28;20019;-78
2021/11/08 07:24:40;;;;;;;18.98;2.65;;;10.20;92.80;;;;;;5096792;28;20429;-77
2021/11/08 07:27:06;;;;;;;3.97;1.15;;;10.20;92.80;;;;;;5114030;28;20027;-77
2021/11/08 07:29:36;;;;;;;15.25;1.75;;;10.20;92.80;;;;;;5109225;28;20509;-78
2021/11/08 07:32:06;;;;;;;8.38;2.00;;;10.20;92.80;;;;;;5103033;28;20554;-78
2021/11/08 07:34:34;;;;;;;6.10;1.77;;;10.20;92.90;;;;;;5108638;28;20035;-77
2021/11/08 07:37:00;;;;;;;6.72;1.15;;;10.20;93.00;;;;;;5103093;28;20040;-78
2021/11/08 07:39:26;;;;;;;9.77;1.55;;;10.20;93.00;;;;;;5112660;28;20387;-78
2021/11/08 07:41:52;;;;;;;4.95;1.10;;;10.20;93.10;;;;;;5103991;28;20047;-78
2021/11/08 07:44:18;;;;;;;7.68;1.70;;;10.20;93.20;;;;;;5100892;28;20065;-78
2021/11/08 07:46:44;;;;;;;4.30;1.27;;;10.20;93.20;;;;;;5110538;28;20024;-78
2021/11/08 07:49:10;;;;;;;7.35;1.60;;;10.20;93.20;;;;;;5097426;28;20079;-78
2021/11/08 07:51:35;;;;;;;5.82;1.23;;;10.20;93.30;;;;;;5098667;28;20122;-78
2021/11/08 07:54:01;;;;;;;6.82;1.73;;;10.20;93.30;;;;;;5107251;28;20036;-78
2021/11/08 07:56:27;;;;;;;12.68;2.00;;;10.30;93.40;;;;;;5109184;28;20039;-78
2021/11/08 07:58:53;;;;;;;4.88;1.42;;;10.20;93.50;;;;;;5107232;28;20544;-77
2021/11/08 08:01:19;;;;;;;7.15;1.65;;;10.20;93.60;;;;;;5106291;28;20111;-77
2021/11/08 08:03:46;;;;;;;6.45;1.60;;;10.20;93.70;;;;;;5096399;28;20480;-77
2021/11/08 08:06:14;;;;;;;6.82;1.77;;;10.20;93.80;;;;;;5107798;28;20031;-71
2021/11/08 08:08:41;;;;;;;9.13;1.35;;;10.20;93.80;;;;;;5112146;28;20467;-79
2021/11/08 08:11:07;;;;;;;8.07;1.30;;;10.30;93.90;;;;;;5096892;28;20103;-79
2021/11/08 08:13:34;;;;;;;9.00;1.38;;;10.20;93.90;;;;;;5093730;28;20115;-79
2021/11/08 08:16:03;;;;;;;3.80;1.45;;;10.30;93.90;;;;;;5102767;28;20028;-79
2021/11/08 08:18:32;;;;;;;3.80;1.55;;;10.30;93.90;;;;;;5099965;28;20052;-79
2021/11/08 08:20:58;;;;;;;10.43;2.17;;;10.40;93.90;;;;;;5095014;28;20028;-80
2021/11/08 08:23:24;;;;;;;7.43;1.02;;;10.40;93.90;;;;;;5100760;28;20034;-79
2021/11/08 08:25:51;;;;;;;5.53;1.10;;;10.40;93.90;;;;;;5099545;28;20023;-80
2021/11/08 08:28:17;;;;;;;6.65;1.50;;;10.40;93.90;;;;;;5105337;28;20035;-80
2021/11/08 08:30:43;;;;;;;8.52;1.85;;;10.50;94.00;;;;;;5100565;28;20039;-80
2021/11/08 08:33:09;;;;;;;8.43;1.63;;;10.50;94.10;;;;;;5098661;28;20023;-80
2021/11/08 08:35:39;;;;;;;9.43;2.53;;;10.50;94.10;;;;;;5108124;28;20494;-79
2021/11/08 08:38:07;;;;;;;9.48;1.63;;;10.50;94.20;;;;;;5098327;28;20035;-79
2021/11/08 08:40:33;;;;;;;6.72;1.73;;;10.50;94.40;;;;;;5105440;28;20035;-79
2021/11/08 08:42:59;;;;;;;6.03;1.65;;;10.40;94.50;;;;;;5101258;28;20112;-80
2021/11/08 08:45:24;;;;;;;6.63;1.50;;;10.40;94.60;;;;;;5106210;28;20051;-79
2021/11/08 08:47:50;;;;;;;10.80;1.65;;;10.40;94.60;;;;;;5108897;28;20116;-79
2021/11/08 08:50:16;;;;;;;4.78;1.65;;;10.50;94.70;;;;;;5110324;28;20032;-79
2021/11/08 08:52:42;;;;;;;9.27;1.20;;;10.50;94.80;;;;;;5107008;28;20048;-79
2021/11/08 08:55:08;;;;;;;1.10;0.98;;;10.50;94.80;;;;;;5100668;28;20498;-79
2021/11/08 08:57:33;;;;;;;2.78;1.17;;;10.50;94.80;;;;;;5093653;28;20530;-79
2021/11/08 09:00:00;;;;;;;3.20;0.93;;;10.60;94.80;;;;;;5102207;28;20122;-79
2021/11/08 09:02:26;;;;;;;2.05;1.08;;;10.60;94.80;;;;;;5103396;28;20028;-79
2021/11/08 09:04:51;;;;;;;4.03;1.40;;;10.60;94.80;;;;;;5111474;28;20038;-80
2021/11/08 09:07:17;;;;;;;4.53;1.20;;;10.60;94.80;;;;;;5098982;28;20566;-79
2021/11/08 09:09:43;;;;;;;1.20;0.95;;;10.70;94.90;;;;;;5098917;28;20028;-79
2021/11/08 09:12:09;;;;;;;2.42;1.10;;;10.70;95.00;;;;;;5098546;28;20031;-79
2021/11/08 09:14:37;;;;;;;1.73;0.60;;;10.70;95.00;;;;;;5101882;28;20050;-79
2021/11/08 09:17:04;;;;;;;7.10;1.23;;;10.80;95.00;;;;;;5099161;28;20027;-79
2021/11/08 09:19:30;;;;;;;6.18;1.08;;;10.80;95.00;;;;;;5106356;28;20089;-79
2021/11/08 09:21:56;;;;;;;7.30;1.40;;;10.80;95.00;;;;;;5109369;28;20509;-82
2021/11/08 09:24:22;;;;;;;7.85;1.35;;;10.80;95.00;;;;;;5103815;28;20046;-81
2021/11/08 09:26:49;;;;;;;5.28;1.05;;;10.80;95.10;;;;;;5101674;28;20031;-77
2021/11/08 09:29:16;;;;;;;3.30;0.73;;;10.90;95.20;;;;;;5101106;28;20049;-81
2021/11/08 09:31:43;;;;;;;1.55;0.82;;;10.90;95.30;;;;;;5109045;28;20376;-79
2021/11/08 09:34:10;;;;;;;0.55;0.55;;;10.90;95.40;;;;;;5111224;28;20032;-76
2021/11/08 09:36:39;;;;;;;3.50;0.63;;;11.00;95.40;;;;;;5101065;28;20050;-78
2021/11/08 09:39:19;;;;;;;0.88;0.47;;;11.00;95.40;;;;;;5105201;28;20024;-77
2021/11/08 09:41:46;;;;;;;10.93;0.98;;;11.00;95.40;;;;;;5099389;28;20034;-77
2021/11/08 09:44:12;;;;;;;0.40;0.40;;;11.00;95.40;;;;;;5113868;27;20081;-87
2021/11/08 09:46:38;;;;;;;0.90;0.75;;;11.10;95.20;;;;;;5122214;27;20023;-84
2021/11/08 09:49:07;;;;;;;4.15;0.80;;;11.20;95.20;;;;;;5095533;27;20028;-83
2021/11/08 09:51:45;;;;;;;3.97;1.30;;;11.20;95.10;;;;;;5100469;27;20040;-83
2021/11/08 09:54:12;;;;;;;4.53;1.27;;;11.20;95.10;;;;;;5096293;28;20083;-82
2021/11/08 09:56:43;;;;;;;0.47;0.25;;;11.30;95.10;;;;;;5092071;28;20052;-83
2021/11/08 09:59:09;;;;;;;2.83;0.68;;;11.30;95.00;;;;;;5095835;28;20107;-83
2021/11/08 10:01:38;;;;;;;1.65;0.68;;;11.40;95.10;;;;;;5101804;28;20475;-84
2021/11/08 10:04:05;;;;;;;2.78;0.60;;;11.40;95.00;;;;;;5102147;28;20027;-83
2021/11/08 10:06:32;;;;;;;7.60;2.17;;;11.50;95.00;;;;;;5093442;28;20040;-84
2021/11/08 10:08:59;;;;;;;5.43;2.08;;;11.50;95.10;;;;;;5099506;28;20063;-85
2021/11/08 10:11:26;;;;;;;1.90;0.80;;;11.50;95.20;;;;;;5099810;28;20035;-85
2021/11/08 10:13:55;;;;;;;4.70;0.80;;;11.50;95.20;;;;;;5104893;28;20035;-84
2021/11/08 10:16:26;;;;;;;5.82;1.45;;;11.50;95.30;;;;;;5101609;28;20038;-83
2021/11/08 10:18:54;;;;;;;5.88;1.20;;;11.60;95.30;;;;;;5101664;28;20107;-83
2021/11/08 10:21:28;;;;;;;3.72;1.33;;;11.60;95.30;;;;;;5100088;28;20038;-84
2021/11/08 10:23:57;;;;;;;5.90;1.63;;;11.60;95.30;;;;;;5092879;28;20107;-86
2021/11/08 10:26:27;;;;;;;7.32;1.40;;;11.60;95.30;;;;;;5103425;28;20039;-87
2021/11/08 10:28:58;;;;;;;4.22;1.48;;;11.60;95.40;;;;;;5107762;28;20044;-87
2021/11/08 10:31:30;;;;;;;2.88;0.65;;;11.60;95.40;;;;;;5096533;28;20514;-77
2021/11/08 10:34:03;;;;;;;1.10;0.68;;;11.70;95.50;;;;;;5093649;28;20036;-76
2021/11/08 10:36:29;;;;;;;4.38;1.65;;;11.70;95.50;;;;;;5097268;28;20092;-79
2021/11/08 10:38:56;;;;;;;6.47;1.05;;;11.70;95.50;;;;;;5093640;28;20414;-77
2021/11/08 10:41:25;;;;;;;4.15;1.25;;;11.70;95.50;;;;;;5091251;28;20438;-78
2021/11/08 10:43:54;;;;;;;1.10;0.68;;;11.80;95.50;;;;;;5100112;28;20024;-75
2021/11/08 10:46:26;;;;;;;3.97;0.57;;;11.80;95.50;;;;;;5097378;28;20031;-77
2021/11/08 10:48:56;;;;;;;3.78;1.65;;;11.80;95.50;;;;;;5094182;28;20075;-79
2021/11/08 10:51:24;;;;;;;4.00;0.80;;;11.90;95.50;;;;;;5112829;27;20047;-80
2021/11/08 10:53:54;;;;;;;9.38;1.05;;;11.90;95.50;;;;;;5106765;28;20044;-79
2021/11/08 10:56:26;;;;;;;4.13;1.15;;;11.90;95.50;;;;;;5102582;28;20042;-78
2021/11/08 10:58:55;;;;;;;4.13;0.75;;;11.90;95.50;;;;;;5103108;28;20076;-80
2021/11/08 11:01:26;;;;;;;4.22;0.95;;;11.90;95.50;;;;;;5104418;28;20039;-78
2021/11/08 11:03:55;;;;;;;4.38;1.60;;;12.00;95.60;;;;;;5100057;28;20030;-79
2021/11/08 11:06:43;;;;;;;1.50;0.38;;;12.00;95.60;;;;;;5101054;28;20372;-78
2021/11/08 11:09:20;;;;;;;1.77;0.73;;;12.00;95.60;;;;;;5101352;28;20021;-78
2021/11/08 11:12:02;;;;;;;7.07;0.93;;;12.00;95.50;;;;;;5103043;28;20028;-78
2021/11/08 11:14:39;;;;;;;6.22;2.03;;;12.00;95.50;;;;;;5098167;28;20035;-78
2021/11/08 11:17:10;;;;;;;3.75;1.00;;;12.10;95.40;;;;;;5102601;28;20070;-78
2021/11/08 11:19:38;;;;;;;9.25;1.52;;;12.10;95.20;;;;;;5102421;28;20028;-78
2021/11/08 11:22:08;;;;;;;4.03;1.02;;;12.20;95.20;;;;;;5099537;28;20023;-77
2021/11/08 11:24:55;;;;;;;10.60;2.00;;;12.20;95.00;;;;;;5103512;28;20043;-77
2021/11/08 11:27:30;;;;;;;10.02;1.55;;;12.30;95.00;;;;;;5101453;28;20546;-78
2021/11/08 11:30:13;;;;;;;4.45;0.63;;;12.40;94.90;;;;;;5108187;28;20031;-78
2021/11/08 11:32:40;;;;;;;;;;;12.40;94.90;;;;;;5095390;28;20032;-79
2021/11/08 11:35:17;;;;;;;4.68;2.00;;;12.40;94.80;;;;;;5102781;28;19924;-79
2021/11/08 11:38:14;;;;;;;3.50;0.65;;;12.40;94.80;;;;;;5104777;28;20028;-79
2021/11/08 11:40:43;;;;;;;3.42;0.70;;;12.40;94.80;;;;;;5089433;28;20032;-79
2021/11/08 11:43:11;;;;;;;4.53;0.90;;;12.50;94.80;;;;;;5102126;28;20475;-80
2021/11/08 11:45:47;;;;;;;13.75;2.63;;;12.50;94.80;;;;;;5105290;28;20021;-79
2021/11/08 11:48:14;;;;;;;12.93;1.98;;;12.50;94.80;;;;;;5102887;28;20027;-79
2021/11/08 11:50:40;;;;;;;16.00;2.30;;;12.60;94.80;;;;;;5100639;28;20387;-78
2021/11/08 11:53:06;;;;;;;7.82;1.48;;;12.70;94.80;;;;;;5099550;28;20127;-78
2021/11/08 11:55:35;;;;;;;2.15;0.88;;;12.70;94.90;;;;;;5096268;28;20031;-79
2021/11/08 11:58:01;;;;;;;7.32;1.50;;;12.80;94.50;;;;;;5097995;28;20042;-79
2021/11/08 12:00:37;;;;;;;27.52;2.55;;;12.70;94.30;;;;;;5096018;28;20035;-78
2021/11/08 12:03:04;;;;;;;5.38;1.90;;;12.80;94.30;;;;;;5101038;28;20020;-79
2021/11/08 12:05:30;;;;;;;5.88;1.52;;;12.80;94.20;;;;;;5100525;28;20421;-80
2021/11/08 12:07:59;;;;;;;8.77;1.05;;;12.80;94.20;;;;;;5108635;27;20024;-80
2021/11/08 12:10:25;;;;;;;9.32;1.48;;;12.90;94.30;;;;;;5102523;28;20039;-79
2021/11/08 12:12:52;;;;;;;5.38;1.15;;;12.80;94.30;;;;;;5093130;28;20032;-82
2021/11/08 12:15:29;;;;;;;11.43;1.63;;;12.80;94.30;;;;;;5091968;27;20565;-79
2021/11/08 12:18:08;;;;;;;19.70;2.67;;;12.90;94.40;;;;;;5116521;27;20158;-79
2021/11/08 12:20:45;;;;;;;9.75;1.52;;;12.80;94.10;;;;;;5095798;28;20048;-79
2021/11/08 12:23:19;;;;;;;23.73;2.70;;;13.00;94.20;;;;;;5100182;28;20023;-80
2021/11/08 12:25:45;;;;;;;;;;;12.90;93.70;;;;;;5102171;28;20052;-79
2021/11/08 12:28:17;;;;;;;20.80;2.38;;;13.00;93.90;;;;;;5093478;28;19970;-80
2021/11/08 12:30:48;;;;;;;17.42;2.33;;;13.00;93.40;;;;;;5097713;28;20507;-80
2021/11/08 12:33:30;;;;;;;22.15;2.15;;;13.10;93.30;;;;;;5099756;28;20027;-79
2021/11/08 12:35:58;;;;;;;22.90;2.58;;;13.10;93.50;;;;;;5098321;28;20361;-79
2021/11/08 12:38:26;;;;;;;13.95;3.05;;;13.20;93.40;;;;;;5105661;28;20027;-80
2021/11/08 12:41:03;;;;;;;16.13;2.97;;;13.20;93.20;;;;;;5098674;28;20115;-80
2021/11/08 12:43:31;;;;;;;24.33;4.32;;;13.20;92.80;;;;;;5095338;28;20088;-80
2021/11/08 12:46:12;;;;;;;13.18;2.33;;;13.20;92.90;;;;;;5100076;28;20035;-80
2021/11/08 12:48:39;;;;;;;21.45;2.78;;;13.30;92.40;;;;;;5098514;28;20154;-80
2021/11/08 12:51:06;;;;;;;16.45;2.60;;;13.30;92.40;;;;;;5095088;27;20031;-80
2021/11/08 12:53:34;;;;;;;13.63;2.10;;;13.30;92.20;;;;;;5096955;28;20055;-80
2021/11/08 12:56:21;;;;;;;15.07;2.50;;;13.40;92.30;;;;;;5092673;28;20123;-80
2021/11/08 12:58:52;;;;;;;18.17;2.83;;;13.40;92.00;;;;;;5091461;28;20039;-80
2021/11/08 13:01:24;;;;;;;8.25;2.10;;;13.50;91.40;;;;;;5098041;28;20209;-80
2021/11/08 13:03:53;;;;;;;13.80;2.45;;;13.50;91.30;;;;;;5101615;28;20020;-81
2021/11/08 13:06:30;;;;;;;15.70;2.75;;;13.50;91.40;;;;;;5092393;28;20040;-78
2021/11/08 13:09:15;;;;;;;13.75;2.40;;;13.60;90.80;;;;;;5095116;28;20031;-79
2021/11/08 13:11:57;;;;;;;15.95;2.28;;;13.60;90.80;;;;;;5105970;28;20039;-71
2021/11/08 13:14:30;;;;;;;17.05;3.17;;;13.60;90.50;;;;;;5097522;28;20470;-89
2021/11/08 13:17:17;;;;;;;13.15;2.40;;;13.70;90.40;;;;;;5098894;28;20398;-83
2021/11/08 13:20:05;;;;;;;19.80;3.03;;;13.70;90.30;;;;;;5092063;28;20032;-78
2021/11/08 13:22:37;;;;;;;27.02;4.45;;;13.70;89.90;;;;;;5104211;28;20028;-78
2021/11/08 13:25:22;;;;;;;20.08;2.95;;;13.70;89.50;;;;;;5095091;28;20476;-79
2021/11/08 13:27:53;;;;;;;20.98;2.85;;;13.80;89.00;;;;;;5102474;28;20455;-79
2021/11/08 13:30:31;;;;;;;23.42;2.67;;;13.90;89.00;;;;;;5099998;28;20031;-78
2021/11/08 13:32:57;;;;;;;19.23;3.35;;;13.90;89.30;;;;;;5102128;28;20074;-79
2021/11/08 13:35:25;;;;;;;21.50;2.63;;;13.90;89.90;;;;;;5098283;28;20122;-73
2021/11/08 13:38:09;;;;;;;18.40;3.00;;;13.90;89.70;;;;;;5091883;28;20433;-80
2021/11/08 13:40:53;;;;;;;19.13;2.72;;;13.90;89.90;;;;;;5097511;28;20038;-80
2021/11/08 13:43:21;;;;;;;15.85;1.92;;;13.90;90.10;;;;;;5098920;28;20546;-79
2021/11/08 13:45:56;;;;;;;23.80;3.50;;;14.00;90.40;;;;;;5078276;28;20115;-80
2021/11/08 13:48:33;;;;;;;14.38;2.17;;;13.90;90.40;;;;;;5104669;28;20040;-79
2021/11/08 13:51:01;;;;;;;10.75;2.22;;;14.00;90.60;;;;;;5103347;27;20111;-79
2021/11/08 13:53:33;;;;;;;18.92;2.72;;;13.90;90.60;;;;;;5099199;28;20052;-80
2021/11/08 13:56:04;;;;;;;19.27;2.45;;;13.90;90.40;;;;;;5096685;28;20416;-81
2021/11/08 13:58:30;;;;;;;18.77;2.45;;;13.90;90.20;;;;;;5101327;28;20822;-80
2021/11/08 14:01:09;;;;;;;15.73;2.47;;;14.00;90.40;;;;;;5101735;28;20027;-79
2021/11/08 14:03:41;;;;;;;12.07;2.08;;;13.90;90.60;;;;;;5095157;28;20028;-79
2021/11/08 14:06:07;;;;;;;13.80;2.70;;;13.90;90.40;;;;;;5093615;28;20024;-80
2021/11/08 14:08:43;;;;;;;14.43;2.38;;;13.90;90.10;;;;;;5094955;28;20038;-79
2021/11/08 14:11:09;;;;;;;17.30;2.75;;;13.90;89.70;;;;;;5095724;28;20063;-79
2021/11/08 14:13:37;;;;;;;15.10;2.65;;;13.90;89.90;;;;;;5104449;28;20047;-79
2021/11/08 14:16:05;;;;;;;12.32;3.58;;;13.90;89.80;;;;;;5099983;28;20124;-80
2021/11/08 14:18:31;;;;;;;14.23;1.95;;;14.00;89.80;;;;;;5102966;28;20028;-80
2021/11/08 14:21:12;;;;;;;15.30;2.85;;;14.00;89.70;;;;;;5095930;28;20051;-79
2021/11/08 14:23:41;;;;;;;11.80;2.15;;;14.00;89.90;;;;;;5099018;28;20027;-79
2021/11/08 14:26:21;;;;;;;13.30;2.55;;;14.00;89.90;;;;;;5097517;28;20032;-79
2021/11/08 14:28:48;;;;;;;13.85;2.30;;;14.00;89.80;;;;;;5103224;28;20027;-80
2021/11/08 14:31:18;;;;;;;13.65;2.25;;;14.00;90.10;;;;;;5102065;28;20035;-78